sensor_id;sensor_type;location;lat;lon;timestamp;temperature;humidity
55711;DHT22;41612;51.994;5.880;2022-12-18T02:03:45;-3273.10;83.60
55711;DHT22;41612;51.994;5.880;2022-12-18T02:06:40;-3273.10;83.90
55711;DHT22;41612;51.994;5.880;2022-12-18T02:09:34;-3273.20;83.80
55711;DHT22;41612;51.994;5.880;2022-12-18T02:12:16;-3273.10;83.50
55711;DHT22;41612;51.994;5.880;2022-12-18T02:15:24;-3273.10;83.40
55711;DHT22;41612;51.994;5.880;2022-12-18T02:18:09;-3273.20;83.50
55711;DHT22;41612;51.994;5.880;2022-12-18T02:20:59;-3273.10;83.80
55711;DHT22;41612;51.994;5.880;2022-12-18T02:23:47;-3273.20;83.80
55711;DHT22;41612;51.994;5.880;2022-12-18T02:26:50;-3273.20;84.00
55711;DHT22;41612;51.994;5.880;2022-12-18T02:32:10;-3273.10;83.90
55711;DHT22;41612;51.994;5.880;2022-12-18T02:35:03;-3273.20;83.90
55711;DHT22;41612;51.994;5.880;2022-12-18T02:37:39;-3273.20;83.40
55711;DHT22;41612;51.994;5.880;2022-12-18T02:40:12;-3273.20;83.30
55711;DHT22;41612;51.994;5.880;2022-12-18T02:42:50;-3273.20;83.60
55711;DHT22;41612;51.994;5.880;2022-12-18T02:45:20;-3273.20;83.50
55711;DHT22;41612;51.994;5.880;2022-12-18T02:47:52;-3273.20;84.00
55711;DHT22;41612;51.994;5.880;2022-12-18T02:51:03;-3273.20;84.10
55711;DHT22;41612;51.994;5.880;2022-12-18T02:53:45;-3273.20;83.90
55711;DHT22;41612;51.994;5.880;2022-12-18T02:59:13;-3273.20;83.80
55711;DHT22;41612;51.994;5.880;2022-12-18T03:05:01;-3273.20;83.60
55711;DHT22;41612;51.994;5.880;2022-12-18T03:07:38;-3273.10;83.30
55711;DHT22;41612;51.994;5.880;2022-12-18T03:10:13;-3273.10;83.20
55711;DHT22;41612;51.994;5.880;2022-12-18T03:16:03;-3273.00;83.60
55711;DHT22;41612;51.994;5.880;2022-12-18T03:19:03;-3273.00;83.50
55711;DHT22;41612;51.994;5.880;2022-12-18T03:21:44;-3273.00;83.00
55711;DHT22;41612;51.994;5.880;2022-12-18T03:24:17;-3273.00;83.00
55711;DHT22;41612;51.994;5.880;2022-12-18T03:27:02;-3273.00;82.90
55711;DHT22;41612;51.994;5.880;2022-12-18T03:29:41;-3273.00;83.50
55711;DHT22;41612;51.994;5.880;2022-12-18T03:32:28;-3273.00;83.10
55711;DHT22;41612;51.994;5.880;2022-12-18T03:35:00;-3273.00;82.90
55711;DHT22;41612;51.994;5.880;2022-12-18T03:37:47;-3272.90;83.10
55711;DHT22;41612;51.994;5.880;2022-12-18T03:40:14;-3272.90;83.30
55711;DHT22;41612;51.994;5.880;2022-12-18T03:42:47;-3272.90;83.30
55711;DHT22;41612;51.994;5.880;2022-12-18T03:45:37;-3272.90;83.40
55711;DHT22;41612;51.994;5.880;2022-12-18T03:48:18;-3272.90;83.20
55711;DHT22;41612;51.994;5.880;2022-12-18T03:51:04;-3272.90;83.20
55711;DHT22;41612;51.994;5.880;2022-12-18T03:56:56;-3272.90;83.60
55711;DHT22;41612;51.994;5.880;2022-12-18T03:59:23;-3272.90;83.60
55711;DHT22;41612;51.994;5.880;2022-12-18T04:01:59;-3272.80;83.30
55711;DHT22;41612;51.994;5.880;2022-12-18T04:04:38;-3272.80;83.40
55711;DHT22;41612;51.994;5.880;2022-12-18T04:07:12;-3272.80;83.80
55711;DHT22;41612;51.994;5.880;2022-12-18T04:09:54;-3272.80;83.40
55711;DHT22;41612;51.994;5.880;2022-12-18T04:12:31;-3272.80;83.50
55711;DHT22;41612;51.994;5.880;2022-12-18T04:15:03;-3272.80;83.60
55711;DHT22;41612;51.994;5.880;2022-12-18T04:17:36;-3272.80;83.60
55711;DHT22;41612;51.994;5.880;2022-12-18T04:20:10;-3272.80;83.70
55711;DHT22;41612;51.994;5.880;2022-12-18T04:22:40;-3272.70;83.30
55711;DHT22;41612;51.994;5.880;2022-12-18T04:25:09;-3272.80;83.30
55711;DHT22;41612;51.994;5.880;2022-12-18T04:27:48;-3272.80;83.50
55711;DHT22;41612;51.994;5.880;2022-12-18T04:30:17;-3272.80;83.10
55711;DHT22;41612;51.994;5.880;2022-12-18T04:33:00;-3272.80;83.00
55711;DHT22;41612;51.994;5.880;2022-12-18T04:35:34;-3272.70;83.40
55711;DHT22;41612;51.994;5.880;2022-12-18T04:38:09;-3272.80;83.80
55711;DHT22;41612;51.994;5.880;2022-12-18T04:40:41;-3272.70;83.30
55711;DHT22;41612;51.994;5.880;2022-12-18T04:43:19;-3272.80;83.20
55711;DHT22;41612;51.994;5.880;2022-12-18T04:45:47;-3272.70;83.20
55711;DHT22;41612;51.994;5.880;2022-12-18T04:48:13;-3272.80;83.40
55711;DHT22;41612;51.994;5.880;2022-12-18T04:50:40;-3272.70;83.10
55711;DHT22;41612;51.994;5.880;2022-12-18T04:53:09;-3272.80;83.30
55711;DHT22;41612;51.994;5.880;2022-12-18T04:55:45;-3272.70;83.70
55711;DHT22;41612;51.994;5.880;2022-12-18T04:58:24;-3272.70;83.50
55711;DHT22;41612;51.994;5.880;2022-12-18T05:00:56;-3272.70;83.60
55711;DHT22;41612;51.994;5.880;2022-12-18T05:03:27;-3272.70;83.60
55711;DHT22;41612;51.994;5.880;2022-12-18T05:06:00;-3272.70;83.60
55711;DHT22;41612;51.994;5.880;2022-12-18T05:08:27;-3272.70;83.50
55711;DHT22;41612;51.994;5.880;2022-12-18T05:11:36;-3272.70;83.20
55711;DHT22;41612;51.994;5.880;2022-12-18T05:14:02;-3272.70;83.10
55711;DHT22;41612;51.994;5.880;2022-12-18T05:16:34;-3272.70;83.00
55711;DHT22;41612;51.994;5.880;2022-12-18T05:19:39;-3272.60;82.90
55711;DHT22;41612;51.994;5.880;2022-12-18T05:22:36;-3272.70;82.70
55711;DHT22;41612;51.994;5.880;2022-12-18T05:25:31;-3272.70;82.70
55711;DHT22;41612;51.994;5.880;2022-12-18T05:28:38;-3272.70;82.70
55711;DHT22;41612;51.994;5.880;2022-12-18T05:31:34;-3272.70;82.80
55711;DHT22;41612;51.994;5.880;2022-12-18T05:34:10;-3272.70;82.70
55711;DHT22;41612;51.994;5.880;2022-12-18T05:40:11;-3272.70;82.80
55711;DHT22;41612;51.994;5.880;2022-12-18T05:42:40;-3272.70;83.00
55711;DHT22;41612;51.994;5.880;2022-12-18T05:45:29;-3272.70;83.40
55711;DHT22;41612;51.994;5.880;2022-12-18T05:48:22;-3272.70;83.10
55711;DHT22;41612;51.994;5.880;2022-12-18T05:51:10;-3272.70;83.10
55711;DHT22;41612;51.994;5.880;2022-12-18T05:53:48;-3272.80;83.00
55711;DHT22;41612;51.994;5.880;2022-12-18T05:56:26;-3272.70;82.80
55711;DHT22;41612;51.994;5.880;2022-12-18T05:59:01;-3272.70;82.70
55711;DHT22;41612;51.994;5.880;2022-12-18T06:01:35;-3272.70;82.50
55711;DHT22;41612;51.994;5.880;2022-12-18T06:04:03;-3272.70;82.80
55711;DHT22;41612;51.994;5.880;2022-12-18T06:06:31;-3272.70;82.90
55711;DHT22;41612;51.994;5.880;2022-12-18T06:09:00;-3272.70;82.80
55711;DHT22;41612;51.994;5.880;2022-12-18T06:12:12;-3272.70;82.70
55711;DHT22;41612;51.994;5.880;2022-12-18T06:14:43;-3272.70;82.60
55711;DHT22;41612;51.994;5.880;2022-12-18T06:17:18;-3272.70;82.70
55711;DHT22;41612;51.994;5.880;2022-12-18T06:19:50;-3272.80;82.80
55711;DHT22;41612;51.994;5.880;2022-12-18T06:22:27;-3272.80;83.00
55711;DHT22;41612;51.994;5.880;2022-12-18T06:24:58;-3272.80;83.00
55711;DHT22;41612;51.994;5.880;2022-12-18T06:27:25;-3272.80;82.80
55711;DHT22;41612;51.994;5.880;2022-12-18T06:29:59;-3272.80;83.50
55711;DHT22;41612;51.994;5.880;2022-12-18T06:32:31;-3272.80;83.10
55711;DHT22;41612;51.994;5.880;2022-12-18T06:35:07;-3272.80;83.10
55711;DHT22;41612;51.994;5.880;2022-12-18T06:37:36;-3272.80;83.00
55711;DHT22;41612;51.994;5.880;2022-12-18T06:40:08;-3272.80;83.10
55711;DHT22;41612;51.994;5.880;2022-12-18T06:42:40;-3272.80;82.70
55711;DHT22;41612;51.994;5.880;2022-12-18T06:45:06;-3272.80;82.50
55711;DHT22;41612;51.994;5.880;2022-12-18T06:47:38;-3272.80;83.20
55711;DHT22;41612;51.994;5.880;2022-12-18T06:50:14;-3272.80;83.00
55711;DHT22;41612;51.994;5.880;2022-12-18T06:52:46;-3272.80;82.70
55711;DHT22;41612;51.994;5.880;2022-12-18T06:55:15;-3272.80;82.70
55711;DHT22;41612;51.994;5.880;2022-12-18T06:57:47;-3272.80;82.70
55711;DHT22;41612;51.994;5.880;2022-12-18T07:00:36;-3272.80;82.60
55711;DHT22;41612;51.994;5.880;2022-12-18T07:03:14;-3272.90;82.70
55711;DHT22;41612;51.994;5.880;2022-12-18T07:05:46;-3272.90;82.80
55711;DHT22;41612;51.994;5.880;2022-12-18T07:08:37;-3272.90;82.60
55711;DHT22;41612;51.994;5.880;2022-12-18T07:14:36;-3272.90;82.90
55711;DHT22;41612;51.994;5.880;2022-12-18T07:17:04;-3272.90;82.60
55711;DHT22;41612;51.994;5.880;2022-12-18T07:19:34;-3272.90;82.70
55711;DHT22;41612;51.994;5.880;2022-12-18T07:22:05;-3272.90;82.60
55711;DHT22;41612;51.994;5.880;2022-12-18T07:24:53;-3272.90;82.50
55711;DHT22;41612;51.994;5.880;2022-12-18T07:27:26;-3272.90;82.70
55711;DHT22;41612;51.994;5.880;2022-12-18T07:30:01;-3273.00;82.60
55711;DHT22;41612;51.994;5.880;2022-12-18T07:33:06;-3273.00;82.60
55711;DHT22;41612;51.994;5.880;2022-12-18T07:35:38;-3273.00;83.00
55711;DHT22;41612;51.994;5.880;2022-12-18T07:38:18;-3273.00;82.80
55711;DHT22;41612;51.994;5.880;2022-12-18T07:40:49;-3273.10;82.50
55711;DHT22;41612;51.994;5.880;2022-12-18T07:43:41;-3273.10;82.40
55711;DHT22;41612;51.994;5.880;2022-12-18T07:46:11;-3273.10;82.50
55711;DHT22;41612;51.994;5.880;2022-12-18T07:48:40;-3273.10;82.40
55711;DHT22;41612;51.994;5.880;2022-12-18T07:51:50;-3273.10;82.30
55711;DHT22;41612;51.994;5.880;2022-12-18T07:54:32;-3273.10;82.30
55711;DHT22;41612;51.994;5.880;2022-12-18T07:57:38;-3273.10;82.20
55711;DHT22;41612;51.994;5.880;2022-12-18T08:00:07;-3273.20;82.20
55711;DHT22;41612;51.994;5.880;2022-12-18T08:02:58;-3273.30;82.20
55711;DHT22;41612;51.994;5.880;2022-12-18T08:05:27;-3273.30;81.90
55711;DHT22;41612;51.994;5.880;2022-12-18T08:08:04;-3273.40;82.10
55711;DHT22;41612;51.994;5.880;2022-12-18T08:10:39;-3273.40;81.80
55711;DHT22;41612;51.994;5.880;2022-12-18T08:13:06;-3273.40;81.80
55711;DHT22;41612;51.994;5.880;2022-12-18T08:15:34;-3273.40;81.70
55711;DHT22;41612;51.994;5.880;2022-12-18T08:18:08;-3273.50;81.60
55711;DHT22;41612;51.994;5.880;2022-12-18T08:20:43;-3273.50;81.60
55711;DHT22;41612;51.994;5.880;2022-12-18T08:23:35;-3273.60;81.40
55711;DHT22;41612;51.994;5.880;2022-12-18T08:26:07;-3273.70;81.20
55711;DHT22;41612;51.994;5.880;2022-12-18T08:28:36;-3273.70;80.90
55711;DHT22;41612;51.994;5.880;2022-12-18T08:31:08;-3273.70;81.10
55711;DHT22;41612;51.994;5.880;2022-12-18T08:33:39;-3273.80;80.90
55711;DHT22;41612;51.994;5.880;2022-12-18T08:36:05;-3273.90;80.80
55711;DHT22;41612;51.994;5.880;2022-12-18T08:38:41;-3273.90;80.50
55711;DHT22;41612;51.994;5.880;2022-12-18T08:41:21;-3274.00;80.40
55711;DHT22;41612;51.994;5.880;2022-12-18T08:43:50;-3274.00;80.10
55711;DHT22;41612;51.994;5.880;2022-12-18T08:46:44;-3274.10;80.10
55711;DHT22;41612;51.994;5.880;2022-12-18T08:49:13;-3274.10;79.90
55711;DHT22;41612;51.994;5.880;2022-12-18T08:51:47;-3274.20;79.90
55711;DHT22;41612;51.994;5.880;2022-12-18T08:54:16;-3274.20;79.50
55711;DHT22;41612;51.994;5.880;2022-12-18T08:56:51;-3274.30;79.40
55711;DHT22;41612;51.994;5.880;2022-12-18T08:59:18;-3274.30;79.40
55711;DHT22;41612;51.994;5.880;2022-12-18T09:01:45;-3274.40;79.20
55711;DHT22;41612;51.994;5.880;2022-12-18T09:04:17;-3274.40;79.30
55711;DHT22;41612;51.994;5.880;2022-12-18T09:06:44;-3274.40;79.20
55711;DHT22;41612;51.994;5.880;2022-12-18T09:09:10;-3274.50;79.00
55711;DHT22;41612;51.994;5.880;2022-12-18T09:11:39;-3274.50;78.90
55711;DHT22;41612;51.994;5.880;2022-12-18T09:14:11;-3274.60;78.80
55711;DHT22;41612;51.994;5.880;2022-12-18T09:16:39;-3274.70;78.70
55711;DHT22;41612;51.994;5.880;2022-12-18T09:19:08;-3274.80;78.50
55711;DHT22;41612;51.994;5.880;2022-12-18T09:21:35;-3274.90;78.20
55711;DHT22;41612;51.994;5.880;2022-12-18T09:24:05;-3275.00;77.90
55711;DHT22;41612;51.994;5.880;2022-12-18T09:26:31;-3275.10;77.70
55711;DHT22;41612;51.994;5.880;2022-12-18T09:29:00;-3275.10;77.50
55711;DHT22;41612;51.994;5.880;2022-12-18T09:31:38;-3275.20;77.50
55711;DHT22;41612;51.994;5.880;2022-12-18T09:34:09;-3275.30;77.10
55711;DHT22;41612;51.994;5.880;2022-12-18T09:36:35;-3275.40;76.90
55711;DHT22;41612;51.994;5.880;2022-12-18T09:39:04;-3275.50;76.70
55711;DHT22;41612;51.994;5.880;2022-12-18T09:47:18;-3275.60;75.50
55711;DHT22;41612;51.994;5.880;2022-12-18T09:50:17;-3275.60;75.40
